Time;durP1;ratioP1;P1;durP2;ratioP2;P2;SDS_P1;SDS_P2;PMS_P1;PMS_P2;Temp;Humidity;BMP_temperature;BMP_pressure;BME280_temperature;BME280_humidity;BME280_pressure;Samples;Min_cycle;Max_cycle;Signal;HPM_P1;HPM_P2
2022/02/17 00:02:29;;;;;;;5.68;0.95;;;;;;;11.20;100.00;97708.84;4975261;28;20053;-84
2022/02/17 00:05:33;;;;;;;0.65;0.45;;;;;;;11.20;100.00;97706.03;4974721;28;20053;-84
2022/02/17 00:08:36;;;;;;;2.67;0.43;;;;;;;11.17;100.00;97709.91;4975619;28;20070;-85
2022/02/17 00:11:41;;;;;;;0.20;0.20;;;;;;;11.16;100.00;97719.53;4975954;28;20393;-84
2022/02/17 00:14:44;;;;;;;2.72;0.20;;;;;;;11.17;100.00;97715.47;4975025;28;20141;-85
2022/02/17 00:17:48;;;;;;;12.45;0.85;;;;;;;11.08;100.00;97730.56;4974496;28;20434;-84
2022/02/17 00:20:53;;;;;;;0.10;0.10;;;;;;;11.03;100.00;97744.56;4974923;28;20058;-84
2022/02/17 00:23:56;;;;;;;0.95;0.65;;;;;;;11.04;100.00;97751.66;4975437;28;20057;-85
2022/02/17 00:27:02;;;;;;;0.10;0.10;;;;;;;11.01;100.00;97744.34;4975221;28;20057;-85
2022/02/17 00:30:07;;;;;;;0.82;0.82;;;;;;;10.95;100.00;97749.25;4975143;28;20054;-85
2022/02/17 00:33:10;;;;;;;0.40;0.40;;;;;;;10.95;100.00;97754.81;4975065;28;20054;-85
2022/02/17 00:36:14;;;;;;;3.00;1.35;;;;;;;10.94;100.00;97775.56;4974364;28;20429;-85
2022/02/17 00:39:17;;;;;;;1.67;0.52;;;;;;;10.96;100.00;97790.47;4975413;28;20057;-85
2022/02/17 00:42:21;;;;;;;0.68;0.50;;;;;;;11.01;100.00;97791.69;4974415;28;20066;-85
2022/02/17 00:45:24;;;;;;;1.35;0.75;;;;;;;10.99;100.00;97799.81;4974410;28;20520;-84
2022/02/17 00:48:28;;;;;;;11.07;0.60;;;;;;;10.93;100.00;97821.44;4974359;28;20054;-84
2022/02/17 00:51:31;;;;;;;0.10;0.00;;;;;;;10.87;100.00;97821.50;4974333;28;20058;-84
2022/02/17 00:54:34;;;;;;;9.27;0.50;;;;;;;10.87;100.00;97849.34;4973841;28;20046;-83
2022/02/17 00:57:38;;;;;;;14.15;0.65;;;;;;;10.79;100.00;97851.22;4966034;28;20058;-84
2022/02/17 01:00:41;;;;;;;12.13;1.35;;;;;;;10.72;100.00;97865.72;4966506;28;20050;-83
2022/02/17 01:03:45;;;;;;;9.35;0.52;;;;;;;10.78;100.00;97887.94;4970851;28;20050;-84
2022/02/17 01:06:48;;;;;;;0.40;0.35;;;;;;;10.69;100.00;97889.06;4963302;28;20054;-84
2022/02/17 01:09:52;;;;;;;0.10;0.10;;;;;;;10.66;100.00;97896.44;4972357;28;20417;-84
2022/02/17 01:12:55;;;;;;;4.13;1.45;;;;;;;10.60;100.00;97890.19;4972310;28;20077;-84
2022/02/17 01:15:59;;;;;;;0.10;0.00;;;;;;;10.59;100.00;97908.13;4970524;28;20050;-84
2022/02/17 01:19:03;;;;;;;1.42;0.38;;;;;;;10.60;100.00;97923.56;4963370;28;20058;-84
2022/02/17 01:22:06;;;;;;;2.75;0.30;;;;;;;10.59;100.00;97941.53;4973625;28;20409;-84
2022/02/17 01:25:09;;;;;;;0.63;0.47;;;;;;;10.55;100.00;97929.94;4973970;28;20053;-84
2022/02/17 01:28:13;;;;;;;0.80;0.22;;;;;;;10.48;100.00;97938.88;4974339;28;20061;-85
2022/02/17 01:31:18;;;;;;;0.10;0.08;;;;;;;10.53;100.00;97967.91;4973038;28;20052;-84
2022/02/17 01:34:21;;;;;;;0.50;0.30;;;;;;;10.51;100.00;97974.03;4973983;28;20065;-84
2022/02/17 01:37:25;;;;;;;0.38;0.38;;;;;;;10.45;100.00;97981.66;4974041;28;20062;-84
2022/02/17 01:40:29;;;;;;;0.22;0.20;;;;;;;10.40;100.00;97985.25;4954946;29;20059;-85
2022/02/17 01:43:34;;;;;;;1.48;0.38;;;;;;;10.42;100.00;97993.84;4954127;28;20105;-84
2022/02/17 01:46:42;;;;;;;0.13;0.13;;;;;;;10.48;100.00;97997.31;4958371;28;20054;-85
2022/02/17 01:49:47;;;;;;;0.10;0.10;;;;;;;10.51;100.00;98012.97;4974599;28;20497;-84
2022/02/17 01:52:50;;;;;;;0.10;0.10;;;;;;;10.27;100.00;98015.72;4972926;28;20073;-84
2022/02/17 01:55:55;;;;;;;0.10;0.00;;;;;;;9.97;100.00;98033.59;4973044;28;20532;-84
2022/02/17 01:59:03;;;;;;;0.10;0.10;;;;;;;9.80;100.00;98044.84;4973222;28;20417;-85
2022/02/17 02:02:07;;;;;;;3.22;0.30;;;;;;;9.77;100.00;98059.75;4974351;28;20065;-85
2022/02/17 02:05:10;;;;;;;3.95;0.55;;;;;;;9.81;100.00;98072.09;4973096;28;20058;-85
2022/02/17 02:08:14;;;;;;;0.95;0.63;;;;;;;9.86;100.00;98053.88;4972745;28;20385;-85
2022/02/17 02:11:18;;;;;;;3.63;0.70;;;;;;;9.92;100.00;98079.63;4973917;28;20053;-85
2022/02/17 02:14:21;;;;;;;0.10;0.00;;;;;;;9.98;100.00;98074.81;4972842;28;20065;-84
2022/02/17 02:17:26;;;;;;;0.10;0.10;;;;;;;9.94;100.00;98072.28;4973791;28;20066;-86
2022/02/17 02:20:30;;;;;;;0.75;0.38;;;;;;;9.99;100.00;98101.34;4974368;28;20058;-86
2022/02/17 02:23:34;;;;;;;0.63;0.43;;;;;;;10.01;100.00;98107.13;4965047;28;20500;-87
2022/02/17 02:26:37;;;;;;;0.10;0.10;;;;;;;10.03;100.00;98101.81;4958904;28;20511;-86
2022/02/17 02:29:42;;;;;;;4.57;1.70;;;;;;;9.98;100.00;98112.97;4973308;28;20073;-85
2022/02/17 02:32:46;;;;;;;0.63;0.20;;;;;;;9.84;100.00;98123.16;4974200;28;20126;-84
2022/02/17 02:35:51;;;;;;;0.10;0.10;;;;;;;9.81;100.00;98135.31;4976848;28;20396;-85
2022/02/17 02:38:54;;;;;;;0.73;0.20;;;;;;;9.74;100.00;98124.72;4978026;28;20053;-88
2022/02/17 02:41:59;;;;;;;0.43;0.25;;;;;;;9.89;100.00;98130.72;4977312;28;20054;-88
2022/02/17 02:45:02;;;;;;;0.10;0.10;;;;;;;9.85;100.00;98127.47;4977486;28;20053;-87
2022/02/17 02:48:08;;;;;;;0.10;0.10;;;;;;;9.80;100.00;98134.56;4978206;28;20118;-88
2022/02/17 02:51:11;;;;;;;0.55;0.20;;;;;;;9.86;100.00;98156.75;4977663;28;20053;-88
2022/02/17 02:54:15;;;;;;;0.52;0.25;;;;;;;9.77;100.00;98151.47;4978094;28;20054;-87
2022/02/17 02:57:18;;;;;;;2.55;0.45;;;;;;;9.78;100.00;98176.00;4977251;28;20062;-89
2022/02/17 03:00:21;;;;;;;2.58;0.20;;;;;;;9.77;100.00;98159.81;4976927;28;20054;-86
2022/02/17 03:03:25;;;;;;;0.10;0.08;;;;;;;9.71;100.00;98178.56;4977592;28;20070;-88
2022/02/17 03:06:32;;;;;;;0.30;0.30;;;;;;;9.61;100.00;98188.44;4976357;28;20050;-84
2022/02/17 03:09:36;;;;;;;0.10;0.10;;;;;;;9.67;100.00;98183.63;4976892;28;20420;-87
2022/02/17 03:12:39;;;;;;;6.03;0.43;;;;;;;9.63;100.00;98191.47;4976901;28;20508;-84
2022/02/17 03:15:42;;;;;;;0.10;0.00;;;;;;;9.69;100.00;98211.66;4976864;28;20073;-85
2022/02/17 03:18:45;;;;;;;0.40;0.35;;;;;;;9.63;100.00;98210.91;4977012;28;20053;-85
2022/02/17 03:21:49;;;;;;;0.15;0.15;;;;;;;9.56;100.00;98214.22;4976170;28;20061;-86
2022/02/17 03:24:52;;;;;;;0.10;0.10;;;;;;;9.56;100.00;98242.00;4976935;28;20053;-85
2022/02/17 03:27:56;;;;;;;6.70;0.65;;;;;;;9.58;100.00;98231.13;4976162;28;20062;-84
2022/02/17 03:30:59;;;;;;;0.10;0.10;;;;;;;9.54;100.00;98230.63;4976210;28;20058;-85
2022/02/17 03:34:02;;;;;;;0.55;0.40;;;;;;;9.49;100.00;98226.59;4975823;28;20054;-85
2022/02/17 03:37:06;;;;;;;0.10;0.08;;;;;;;9.43;100.00;98239.00;4975997;28;20062;-85
2022/02/17 03:40:10;;;;;;;0.57;0.20;;;;;;;9.46;100.00;98251.88;4957385;29;20053;-87
2022/02/17 03:43:13;;;;;;;0.10;0.10;;;;;;;9.45;100.00;98247.56;4957074;28;20070;-85
2022/02/17 03:46:16;;;;;;;0.20;0.15;;;;;;;9.40;100.00;98262.25;4957282;28;20050;-83
2022/02/17 03:49:20;;;;;;;0.10;0.10;;;;;;;9.40;100.00;98262.25;4976257;28;20057;-83
2022/02/17 03:52:23;;;;;;;0.30;0.30;;;;;;;9.47;100.00;98270.03;4976048;28;20058;-84
2022/02/17 03:55:26;;;;;;;0.10;0.00;;;;;;;9.57;100.00;98285.22;4956168;29;20405;-84
2022/02/17 04:01:53;;;;;;;1.50;0.32;;;;;;;9.57;100.00;98282.44;4975732;28;20054;-84
2022/02/17 04:04:56;;;;;;;5.65;0.75;;;;;;;9.59;100.00;98296.59;4974975;28;20073;-85
2022/02/17 04:07:59;;;;;;;0.10;0.10;;;;;;;9.51;100.00;98295.56;4975092;28;20062;-85
2022/02/17 04:11:04;;;;;;;2.05;0.20;;;;;;;9.40;100.00;98295.59;4975066;28;20054;-84
2022/02/17 04:14:07;;;;;;;0.10;0.10;;;;;;;9.38;100.00;98303.63;4976101;28;20062;-84
2022/02/17 04:17:10;;;;;;;0.17;0.17;;;;;;;9.38;100.00;98315.50;4975810;28;20078;-84
2022/02/17 04:20:14;;;;;;;5.22;0.35;;;;;;;9.40;100.00;98317.81;4975304;28;20062;-85
2022/02/17 04:23:17;;;;;;;0.10;0.10;;;;;;;9.49;100.00;98325.88;4975622;28;20091;-85
2022/02/17 04:26:21;;;;;;;0.20;0.20;;;;;;;9.52;100.00;98327.66;4974401;28;20493;-85
2022/02/17 04:29:25;;;;;;;0.17;0.17;;;;;;;9.48;100.00;98330.69;4974401;28;20512;-84
2022/02/17 04:32:29;;;;;;;0.32;0.32;;;;;;;9.52;100.00;98349.88;4974576;28;20062;-84
2022/02/17 04:35:32;;;;;;;0.10;0.10;;;;;;;9.46;100.00;98363.03;4974532;28;20057;-85
2022/02/17 04:38:36;;;;;;;0.10;0.10;;;;;;;9.46;100.00;98354.69;4974723;28;20412;-84
2022/02/17 04:45:02;;;;;;;0.10;0.10;;;;;;;9.42;100.00;98365.28;4975351;28;20058;-84
2022/02/17 04:48:06;;;;;;;0.63;0.35;;;;;;;9.31;100.00;98351.38;4974613;28;20062;-84
2022/02/17 04:51:09;;;;;;;2.17;0.80;;;;;;;9.15;100.00;98358.44;4975395;28;20496;-84
2022/02/17 04:54:13;;;;;;;4.13;0.85;;;;;;;9.03;100.00;98371.53;4974463;28;20057;-84
2022/02/17 04:57:16;;;;;;;0.38;0.38;;;;;;;9.00;100.00;98380.88;4974420;28;20057;-83
2022/02/17 05:00:20;;;;;;;0.10;0.10;;;;;;;8.94;100.00;98377.28;4974258;28;20108;-84
2022/02/17 05:03:24;;;;;;;0.10;0.10;;;;;;;8.94;100.00;98387.66;4974042;28;20054;-84
2022/02/17 05:06:28;;;;;;;0.68;0.20;;;;;;;8.96;100.00;98402.56;4974060;28;20054;-84
2022/02/17 05:09:31;;;;;;;0.20;0.20;;;;;;;8.95;100.00;98411.38;4974238;28;20066;-84
2022/02/17 05:12:34;;;;;;;3.30;0.40;;;;;;;8.85;100.00;98408.06;4973685;28;20049;-84
2022/02/17 05:15:38;;;;;;;0.10;0.10;;;;;;;8.76;100.00;98422.16;4974120;28;20053;-84
2022/02/17 05:18:42;;;;;;;16.17;1.05;;;;;;;8.73;100.00;98425.91;4974181;28;20074;-85
2022/02/17 05:21:45;;;;;;;0.10;0.10;;;;;;;8.73;100.00;98428.69;4974505;28;20058;-84
2022/02/17 05:24:48;;;;;;;1.58;0.50;;;;;;;8.69;100.00;98442.06;4974064;28;20054;-85
2022/02/17 05:27:52;;;;;;;0.30;0.15;;;;;;;8.73;100.00;98439.03;4974459;28;20054;-84
2022/02/17 05:30:55;;;;;;;0.10;0.00;;;;;;;8.70;100.00;98457.47;4973854;28;20062;-83
2022/02/17 05:33:59;;;;;;;0.22;0.22;;;;;;;8.75;100.00;98459.50;4972338;28;20050;-84
2022/02/17 05:37:02;;;;;;;4.88;0.55;;;;;;;8.72;100.00;98454.19;4972803;28;20417;-82
2022/02/17 05:40:08;;;;;;;0.25;0.25;;;;;;;8.69;100.00;98461.47;4954132;29;20054;-83
2022/02/17 05:43:12;;;;;;;3.10;0.65;;;;;;;8.69;100.00;98472.56;4953631;28;20070;-84
2022/02/17 05:46:15;;;;;;;0.20;0.20;;;;;;;8.67;100.00;98469.53;4954484;28;20590;-83
2022/02/17 05:49:18;;;;;;;0.10;0.10;;;;;;;8.71;100.00;98472.84;4973749;28;20057;-84
2022/02/17 05:52:22;;;;;;;2.45;0.73;;;;;;;8.64;100.00;98470.53;4973794;28;20050;-85
2022/02/17 05:55:26;;;;;;;12.48;0.95;;;;;;;8.64;100.00;98484.41;4972751;28;20054;-82
2022/02/17 05:58:29;;;;;;;1.73;0.13;;;;;;;8.50;100.00;98481.78;4972512;28;20058;-82
2022/02/17 06:01:33;;;;;;;7.00;0.65;;;;;;;8.52;100.00;98502.25;4972661;28;20054;-84
2022/02/17 06:04:36;;;;;;;0.10;0.10;;;;;;;8.56;100.00;98508.31;4973077;28;20393;-83
2022/02/17 06:07:39;;;;;;;0.10;0.10;;;;;;;8.65;100.00;98497.03;4970956;28;20074;-81
2022/02/17 06:10:43;;;;;;;0.10;0.10;;;;;;;8.82;100.00;98492.34;4971370;28;20062;-82
2022/02/17 06:13:47;;;;;;;0.10;0.10;;;;;;;8.90;100.00;98498.94;4972049;28;20062;-82
2022/02/17 06:16:50;;;;;;;0.32;0.32;;;;;;;8.99;100.00;98506.28;4972439;28;20065;-82
2022/02/17 06:19:54;;;;;;;0.10;0.10;;;;;;;9.00;100.00;98510.59;4972745;28;20054;-82
2022/02/17 06:22:57;;;;;;;0.40;0.40;;;;;;;8.95;100.00;98514.88;4971824;28;20058;-83
2022/02/17 06:26:00;;;;;;;0.10;0.10;;;;;;;8.93;100.00;98503.50;4971699;28;20508;-81
2022/02/17 06:29:04;;;;;;;0.20;0.13;;;;;;;8.85;100.00;98512.78;4971807;28;20058;-83
2022/02/17 06:32:08;;;;;;;0.10;0.10;;;;;;;8.71;100.00;98519.25;4972108;28;20062;-82
2022/02/17 06:35:11;;;;;;;1.58;1.20;;;;;;;8.64;100.00;98528.81;4971850;28;20062;-82
2022/02/17 06:38:14;;;;;;;6.70;0.68;;;;;;;8.60;100.00;98553.25;4972183;28;20053;-82
2022/02/17 06:41:20;;;;;;;0.10;0.10;;;;;;;8.59;100.00;98543.41;4972723;28;20069;-82
2022/02/17 06:44:24;;;;;;;0.20;0.20;;;;;;;8.62;100.00;98544.44;4972029;28;20057;-82
2022/02/17 06:47:27;;;;;;;0.55;0.28;;;;;;;8.71;100.00;98541.47;4972238;28;20062;-83
2022/02/17 06:50:31;;;;;;;9.95;2.25;;;;;;;8.74;100.00;98546.78;4972335;28;20401;-82
2022/02/17 06:53:35;;;;;;;10.93;1.48;;;;;;;8.81;100.00;98540.78;4972339;28;20050;-83
2022/02/17 06:56:39;;;;;;;10.57;1.60;;;;;;;8.88;100.00;98556.97;4972181;28;20508;-83
2022/02/17 06:59:43;;;;;;;5.10;1.70;;;;;;;8.92;100.00;98560.28;4972605;28;20054;-84
2022/02/17 07:02:54;;;;;;;9.63;0.88;;;;;;;8.96;100.00;98563.59;4973081;28;20058;-85
2022/02/17 07:05:59;;;;;;;;;;;;;;;8.99;100.00;98576.47;4972921;28;20058;-84
2022/02/17 07:09:03;;;;;;;4.10;1.50;;;;;;;9.12;100.00;98571.25;4964097;28;19939;-83
2022/02/17 07:12:07;;;;;;;0.43;0.30;;;;;;;9.18;100.00;98578.84;4953008;28;20070;-85
2022/02/17 07:15:11;;;;;;;12.50;2.88;;;;;;;9.20;100.00;98587.47;4952762;29;20050;-84
2022/02/17 07:18:16;;;;;;;3.88;0.70;;;;;;;9.14;100.00;98590.94;4971523;28;20400;-85
2022/02/17 07:21:19;;;;;;;7.10;0.88;;;;;;;9.09;100.00;98608.38;4976195;28;20105;-84
2022/02/17 07:24:24;;;;;;;4.53;1.52;;;;;;;8.95;100.00;98617.59;4975868;28;20054;-83
2022/02/17 07:27:27;;;;;;;0.57;0.30;;;;;;;8.79;100.00;98634.88;4975837;28;20058;-83
2022/02/17 07:30:31;;;;;;;0.50;0.50;;;;;;;8.68;100.00;98620.94;4976078;28;20122;-83
2022/02/17 07:33:34;;;;;;;1.17;0.73;;;;;;;8.57;100.00;98648.59;4975859;28;20437;-83
2022/02/17 07:36:37;;;;;;;1.13;0.60;;;;;;;8.41;100.00;98635.31;4976241;28;20058;-83
2022/02/17 07:39:41;;;;;;;0.30;0.20;;;;;;;8.37;100.00;98656.97;4975968;28;20069;-83
2022/02/17 07:42:45;;;;;;;0.47;0.45;;;;;;;8.38;100.00;98661.28;4975084;28;20057;-83
2022/02/17 07:45:50;;;;;;;0.10;0.10;;;;;;;8.37;100.00;98656.97;4974668;28;20054;-83
2022/02/17 07:48:54;;;;;;;0.10;0.10;;;;;;;8.42;100.00;98664.59;4974633;28;20057;-83
2022/02/17 07:51:57;;;;;;;2.55;1.05;;;;;;;8.37;100.00;98673.63;4975399;28;20508;-83
2022/02/17 07:55:01;;;;;;;3.40;0.43;;;;;;;8.33;100.00;98684.16;4975204;28;20050;-83
2022/02/17 07:58:10;;;;;;;7.13;0.30;;;;;;;8.31;100.00;98686.66;4974719;28;20515;-84
2022/02/17 08:01:13;;;;;;;1.48;0.50;;;;;;;8.27;100.00;98697.97;4975768;28;20049;-83
2022/02/17 08:04:17;;;;;;;0.10;0.10;;;;;;;8.24;100.00;98704.47;4974181;28;20523;-82
2022/02/17 08:07:20;;;;;;;0.10;0.10;;;;;;;8.23;100.00;98707.72;4975207;28;20507;-84
2022/02/17 08:10:23;;;;;;;0.13;0.10;;;;;;;8.36;100.00;98699.81;4975162;28;20058;-83
2022/02/17 08:13:27;;;;;;;0.65;0.30;;;;;;;8.57;100.00;98711.66;4974189;28;20050;-83
2022/02/17 08:16:30;;;;;;;0.10;0.10;;;;;;;8.73;100.00;98714.56;4974990;28;20734;-82
2022/02/17 08:19:35;;;;;;;0.68;0.68;;;;;;;8.79;100.00;98732.03;4975163;28;20057;-83
2022/02/17 08:22:38;;;;;;;1.13;1.05;;;;;;;8.84;100.00;98734.09;4975066;28;20057;-83
2022/02/17 08:25:42;;;;;;;0.20;0.20;;;;;;;8.84;100.00;98750.75;4975212;28;20054;-83
2022/02/17 08:28:46;;;;;;;0.10;0.10;;;;;;;8.77;100.00;98751.19;4955542;28;20503;-85
2022/02/17 08:31:49;;;;;;;2.13;0.65;;;;;;;8.88;100.00;98773.50;4956195;28;20105;-83
2022/02/17 08:34:53;;;;;;;0.10;0.10;;;;;;;8.84;100.00;98777.75;4954914;29;20062;-84
2022/02/17 08:37:57;;;;;;;0.10;0.10;;;;;;;8.94;100.00;98770.81;4970073;28;20061;-88
2022/02/17 08:41:00;;;;;;;0.10;0.10;;;;;;;8.98;100.00;98768.56;4976151;28;20070;-87
2022/02/17 08:44:04;;;;;;;1.55;0.63;;;;;;;8.95;100.00;98775.09;4976378;28;20059;-86
2022/02/17 08:47:08;;;;;;;12.45;0.77;;;;;;;8.85;100.00;98770.97;4975029;28;20058;-86
2022/02/17 08:50:11;;;;;;;0.10;0.10;;;;;;;8.84;100.00;98784.06;4974826;28;20054;-86
2022/02/17 08:53:15;;;;;;;0.15;0.15;;;;;;;8.85;100.00;98788.38;4974641;28;20500;-86
2022/02/17 08:56:19;;;;;;;0.10;0.10;;;;;;;8.95;100.00;98800.84;4974945;28;20054;-83
2022/02/17 08:59:22;;;;;;;0.10;0.10;;;;;;;9.03;100.00;98810.25;4975376;28;20074;-85
2022/02/17 09:02:26;;;;;;;6.70;0.70;;;;;;;9.14;100.00;98815.91;4973895;28;20420;-83
2022/02/17 09:05:31;;;;;;;0.22;0.20;;;;;;;9.18;100.00;98819.25;4974063;28;20058;-84
2022/02/17 09:08:35;;;;;;;0.20;0.20;;;;;;;9.18;100.00;98834.41;4973233;28;20412;-84
2022/02/17 09:11:38;;;;;;;0.45;0.45;;;;;;;9.29;100.00;98835.25;4977119;28;20131;-84
2022/02/17 09:14:41;;;;;;;0.10;0.10;;;;;;;9.42;100.00;98837.66;4973936;28;20054;-83
2022/02/17 09:17:48;;;;;;;0.10;0.10;;;;;;;9.46;100.00;98852.09;4973557;28;20058;-83
2022/02/17 09:20:51;;;;;;;0.70;0.22;;;;;;;9.61;100.00;98855.50;4972892;28;20058;-82
2022/02/17 09:23:55;;;;;;;0.57;0.57;;;;;;;9.69;100.00;98873.25;4972747;28;20053;-83
2022/02/17 09:26:59;;;;;;;0.10;0.10;;;;;;;9.74;100.00;98869.75;4973054;28;20445;-82
2022/02/17 09:30:04;;;;;;;0.30;0.20;;;;;;;9.77;100.00;98877.84;4973437;28;20062;-82
2022/02/17 09:33:08;;;;;;;2.10;0.45;;;;;;;9.77;100.00;98891.75;4972804;28;20058;-81
2022/02/17 09:36:13;;;;;;;0.10;0.10;;;;;;;9.71;100.00;98890.19;4972475;28;20050;-84
2022/02/17 09:39:16;;;;;;;0.65;0.35;;;;;;;9.70;100.00;98908.13;4967889;28;20049;-83
2022/02/17 09:42:19;;;;;;;0.75;0.60;;;;;;;9.63;100.00;98928.81;4972139;28;20396;-83
2022/02/17 09:45:25;;;;;;;0.20;0.20;;;;;;;9.63;100.00;98914.13;4973457;28;20512;-83
2022/02/17 09:48:31;;;;;;;4.38;0.50;;;;;;;9.67;100.00;98920.22;4972954;28;20057;-84
2022/02/17 09:51:35;;;;;;;0.10;0.10;;;;;;;9.64;100.00;98912.88;4973510;28;20054;-83
2022/02/17 09:54:38;;;;;;;0.10;0.10;;;;;;;9.59;100.00;98922.69;4952676;29;20050;-82
2022/02/17 09:57:42;;;;;;;0.20;0.20;;;;;;;9.61;100.00;98931.31;4965306;28;20053;-82
2022/02/17 10:00:46;;;;;;;0.17;0.17;;;;;;;9.60;100.00;98931.78;4972971;28;20054;-83
2022/02/17 10:03:49;;;;;;;0.20;0.20;;;;;;;9.75;100.00;98932.44;4972488;28;20062;-84
2022/02/17 10:06:58;;;;;;;13.48;1.88;;;;;;;9.90;100.00;98944.19;4972197;28;20061;-82
2022/02/17 10:10:05;;;;;;;1.00;0.38;;;;;;;10.05;100.00;98942.03;4973301;28;20514;-83
2022/02/17 10:13:17;;;;;;;0.20;0.20;;;;;;;10.13;100.00;98945.94;4972556;28;20062;-82
2022/02/17 10:16:20;;;;;;;0.38;0.38;;;;;;;10.25;100.00;98953.09;4972623;28;20069;-84
2022/02/17 10:19:26;;;;;;;2.15;0.43;;;;;;;10.32;100.00;98977.69;4973422;28;20073;-84
2022/02/17 10:22:34;;;;;;;0.30;0.30;;;;;;;10.37;100.00;98963.03;4972092;28;20058;-82
2022/02/17 10:25:37;;;;;;;0.10;0.10;;;;;;;10.50;100.00;98968.94;4972931;28;20050;-82
2022/02/17 10:28:44;;;;;;;0.22;0.22;;;;;;;10.68;100.00;98979.69;4972863;28;20062;-82
2022/02/17 10:31:47;;;;;;;0.10;0.10;;;;;;;10.68;100.00;98965.78;4972256;28;20050;-83
2022/02/17 10:35:12;;;;;;;3.08;0.63;;;;;;;10.82;100.00;98971.66;4980268;28;20507;-84
2022/02/17 10:38:19;;;;;;;3.80;0.43;;;;;;;10.85;100.00;98977.00;4972223;28;20058;-83
2022/02/17 10:41:47;;;;;;;2.67;0.75;;;;;;;10.92;100.00;98982.09;4971895;28;20070;-84
2022/02/17 10:44:50;;;;;;;2.95;0.93;;;;;;;11.04;100.00;98994.06;4976120;28;20547;-86
2022/02/17 10:48:10;;;;;;;0.15;0.10;;;;;;;11.05;100.00;98984.44;4973185;28;20050;-89
2022/02/17 10:51:18;;;;;;;0.63;0.35;;;;;;;11.04;100.00;99005.22;4973390;28;20050;-86
2022/02/17 10:54:24;;;;;;;2.92;0.28;;;;;;;10.99;100.00;99011.50;4975229;28;20057;-82
2022/02/17 10:57:29;;;;;;;2.80;0.50;;;;;;;11.07;100.00;99010.53;4975416;28;20053;-83
2022/02/17 11:00:33;;;;;;;9.73;1.25;;;;;;;11.17;100.00;99006.28;4975379;28;20058;-82
2022/02/17 11:03:37;;;;;;;0.47;0.25;;;;;;;11.27;100.00;99004.81;4975721;28;20050;-83
2022/02/17 11:06:41;;;;;;;7.93;0.20;;;;;;;11.26;100.00;99010.91;4975576;28;20397;-83
2022/02/17 11:09:46;;;;;;;0.40;0.20;;;;;;;11.32;100.00;99020.03;4975933;28;20123;-85
2022/02/17 11:12:49;;;;;;;0.68;0.30;;;;;;;11.51;100.00;99012.75;4977142;28;20520;-84
2022/02/17 11:15:57;;;;;;;0.30;0.30;;;;;;;11.63;100.00;99017.06;4976904;28;20066;-85
2022/02/17 11:19:00;;;;;;;0.63;0.45;;;;;;;11.65;100.00;99028.50;4976160;28;20057;-83
2022/02/17 11:22:04;;;;;;;0.60;0.20;;;;;;;11.62;100.00;99025.97;4976329;28;20054;-84
2022/02/17 11:25:11;;;;;;;0.40;0.32;;;;;;;11.59;100.00;99027.72;4975613;28;20397;-85
2022/02/17 11:28:16;;;;;;;3.03;0.85;;;;;;;11.66;100.00;99018.88;4976438;28;20061;-85
2022/02/17 11:31:19;;;;;;;4.63;1.30;;;;;;;11.72;100.00;99019.66;4976062;28;20062;-87
2022/02/17 11:34:42;;;;;;;0.30;0.30;;;;;;;11.89;100.00;99030.88;4974648;28;20061;-81
2022/02/17 11:37:46;;;;;;;0.63;0.40;;;;;;;12.01;100.00;99013.66;4974462;28;20416;-81
2022/02/17 11:41:27;;;;;;;3.80;0.73;;;;;;;12.05;100.00;98997.41;4975311;28;20053;-82
2022/02/17 11:44:32;;;;;;;2.58;0.82;;;;;;;12.03;100.00;98999.94;4974549;28;20658;-83
2022/02/17 11:47:59;;;;;;;7.70;0.45;;;;;;;12.07;100.00;99008.84;4974962;28;20050;-81
2022/02/17 11:51:14;;;;;;;7.22;1.65;;;;;;;12.05;100.00;99005.78;4962521;28;20074;-81
2022/02/17 11:54:19;;;;;;;5.93;1.00;;;;;;;12.08;100.00;99004.75;4955069;29;20414;-82
2022/02/17 11:57:36;;;;;;;2.58;1.08;;;;;;;12.16;100.00;99013.41;4963883;28;20061;-83
2022/02/17 12:00:41;;;;;;;7.15;0.70;;;;;;;12.23;100.00;99017.72;4974642;28;20102;-81
2022/02/17 12:04:08;;;;;;;0.55;0.43;;;;;;;12.12;100.00;99007.31;4974817;28;20091;-82
2022/02/17 12:07:30;;;;;;;0.75;0.63;;;;;;;12.26;100.00;99003.50;4974000;28;20066;-80
2022/02/17 12:10:34;;;;;;;;;;;;;;;12.24;100.00;99003.25;4975124;28;20053;-81
2022/02/17 12:13:37;;;;;;;1.38;0.30;;;;;;;12.27;100.00;99004.25;4973604;28;20303;-80
2022/02/17 12:16:41;;;;;;;1.33;0.47;;;;;;;12.36;100.00;98981.69;4974104;28;20049;-80
2022/02/17 12:19:46;;;;;;;5.57;0.38;;;;;;;12.50;100.00;98969.47;4974838;28;20062;-80
2022/02/17 12:22:59;;;;;;;0.20;0.20;;;;;;;12.56;100.00;98961.88;4973384;28;20062;-80
2022/02/17 12:26:09;;;;;;;0.50;0.20;;;;;;;12.63;100.00;98959.28;4974600;28;20084;-81
2022/02/17 12:29:32;;;;;;;1.33;0.38;;;;;;;12.66;100.00;98954.72;4974461;28;20057;-81
2022/02/17 12:32:35;;;;;;;2.33;0.93;;;;;;;12.72;100.00;98935.91;4974023;28;20066;-82
2022/02/17 12:35:45;;;;;;;6.32;0.82;;;;;;;12.78;100.00;98940.19;4974602;28;20061;-82
2022/02/17 12:38:49;;;;;;;6.32;0.40;;;;;;;12.80;100.00;98950.84;4973651;28;20504;-81
2022/02/17 12:42:02;;;;;;;2.38;0.65;;;;;;;12.88;100.00;98961.03;4973995;28;20069;-81
2022/02/17 12:45:05;;;;;;;0.15;0.10;;;;;;;12.90;100.00;98964.06;4972950;28;20054;-80
2022/02/17 12:48:10;;;;;;;1.52;0.17;;;;;;;12.76;100.00;98958.75;4972632;28;20045;-82
2022/02/17 12:51:27;;;;;;;0.20;0.20;;;;;;;12.53;100.00;98948.91;4974052;28;20061;-80
2022/02/17 12:54:31;;;;;;;6.82;0.40;;;;;;;12.50;100.00;98952.72;4974028;28;20054;-81
2022/02/17 12:57:35;;;;;;;1.20;0.13;;;;;;;12.50;100.00;98947.13;4973687;28;20057;-81
2022/02/17 13:00:40;;;;;;;2.63;0.30;;;;;;;12.50;100.00;98930.38;4973177;28;20413;-81
2022/02/17 13:03:43;;;;;;;0.40;0.20;;;;;;;12.44;100.00;98940.78;4973254;28;20058;-81
2022/02/17 13:06:47;;;;;;;5.13;0.80;;;;;;;12.45;100.00;98928.38;4973763;28;20073;-81
2022/02/17 13:09:54;;;;;;;0.73;0.73;;;;;;;12.45;98.48;98920.72;4972775;28;20062;-81
2022/02/17 13:12:57;;;;;;;0.10;0.10;;;;;;;12.45;98.55;98928.38;4973508;28;20058;-82
2022/02/17 13:16:01;;;;;;;7.05;0.10;;;;;;;12.47;96.88;98931.41;4972359;28;20054;-81
2022/02/17 13:19:07;;;;;;;0.50;0.40;;;;;;;12.60;97.27;98940.00;4953688;29;20058;-82
2022/02/17 13:22:34;;;;;;;14.80;1.08;;;;;;;12.69;94.29;98932.09;4953831;28;20070;-82
2022/02/17 13:25:37;;;;;;;0.25;0.20;;;;;;;12.76;93.69;98931.56;4965514;28;20063;-81
2022/02/17 13:28:49;;;;;;;0.85;0.52;;;;;;;12.44;95.14;98932.41;4954125;29;20116;-82
2022/02/17 13:31:53;;;;;;;2.75;0.77;;;;;;;12.21;98.74;98947.69;4953893;28;20408;-82
2022/02/17 13:35:11;;;;;;;0.52;0.38;;;;;;;12.10;100.00;98943.63;4952673;29;20433;-81
2022/02/17 13:38:15;;;;;;;2.58;0.38;;;;;;;12.11;99.40;98949.97;4969544;28;20421;-82
2022/02/17 13:41:19;;;;;;;0.88;0.38;;;;;;;12.12;100.00;98952.25;4973013;28;20527;-82
2022/02/17 13:44:43;;;;;;;6.82;0.20;;;;;;;12.07;100.00;98977.38;4972375;28;20062;-82
2022/02/17 13:47:50;;;;;;;0.10;0.10;;;;;;;11.73;100.00;98959.84;4972264;28;20508;-82
2022/02/17 13:51:04;;;;;;;0.25;0.17;;;;;;;11.64;100.00;98971.22;4972815;28;20140;-82
2022/02/17 13:54:07;;;;;;;0.85;0.52;;;;;;;11.58;100.00;98986.41;4972762;28;20053;-81
2022/02/17 13:57:11;;;;;;;0.30;0.30;;;;;;;11.47;100.00;98975.97;4972936;28;20073;-82
2022/02/17 14:00:15;;;;;;;4.97;0.65;;;;;;;11.44;100.00;98960.25;4971857;28;20590;-81
2022/02/17 14:03:24;;;;;;;0.10;0.10;;;;;;;11.25;100.00;98948.03;4972038;28;20054;-82
2022/02/17 14:06:27;;;;;;;0.10;0.10;;;;;;;11.02;100.00;98935.31;4971316;28;20520;-82
2022/02/17 14:09:32;;;;;;;0.10;0.10;;;;;;;10.95;100.00;98935.78;4972374;28;20062;-81
2022/02/17 14:12:36;;;;;;;0.30;0.30;;;;;;;10.89;100.00;98943.34;4972702;28;20069;-81
2022/02/17 14:15:40;;;;;;;0.50;0.22;;;;;;;10.87;100.00;98940.31;4972743;28;20484;-81
2022/02/17 14:18:44;;;;;;;0.25;0.17;;;;;;;10.86;100.00;98939.53;4973195;28;20087;-80
2022/02/17 14:21:47;;;;;;;6.85;0.30;;;;;;;10.93;100.00;98939.06;4972254;28;20073;-82
2022/02/17 14:24:51;;;;;;;2.03;0.63;;;;;;;11.02;100.00;98947.19;4972392;28;20057;-80
2022/02/17 14:27:54;;;;;;;0.10;0.10;;;;;;;11.12;100.00;98950.53;4976220;28;20050;-82
2022/02/17 14:30:58;;;;;;;4.28;0.30;;;;;;;11.08;100.00;98950.00;4977990;28;20073;-80
2022/02/17 14:34:04;;;;;;;0.30;0.30;;;;;;;10.91;100.00;98936.03;4977804;28;20057;-81